Taranto — V2AK2 — position and weather

sailwx.info

Track history (hours):
 
Tides and Currents Weather Stations Pressure Air Temp Water Temp Dewpoint Dewpoint Depression Visibility Wind Speed Wind Dir Waves Ship Positions

Taranto

Last reported at 2014-Sep-24 22:06 UTC. Time now 2014-Oct-01 20:27 UTC.
Position N 46°23' W 002°08'.

Length 88 m; draft 3.2 m.

Type: Cargo ship. MMSI: 304010614.

Date/timePositionNaut miles runAvg speedWind from/ knotsBaromVisibWave heightAir tempDewpointWater temp
2014-Sep-24 22:06N 46°23' W 002°08'610.7
2014-Sep-24 21:32N 46°19' W 002°01'1110.7
2014-Sep-24 20:30N 46°13' W 001°47'3 0.1
2014-Sep-22 21:30N 46°11' W 001°47'  
2014-Sep-20 12:33N 50°36' E 000°21'1110.7
2014-Sep-20 11:33N 50°40' E 000°37'1010.1
2014-Sep-20 10:34N 50°46' E 000°50'38 9.5
2014-Sep-20 06:33N 51°10' E 001°37'1211.5
2014-Sep-20 05:33N 51°18' E 001°50'12 9.0
2014-Sep-20 04:10N 51°23' E 002°08'610.3
2014-Sep-20 03:34N 51°21' E 002°17'1110.5
2014-Sep-20 02:33N 51°23' E 002°34'9 9.1
2014-Sep-20 01:33N 51°22' E 002°48'1514.5
2014-Sep-20 00:32N 51°23' E 003°12'13 6.7
2014-Sep-19 22:33N 51°25' E 003°33'8 8.2
2014-Sep-19 21:33N 51°24' E 003°46'6 5.9
2014-Sep-19 20:31N 51°25' E 003°55'5 5.5
2014-Sep-19 19:33N 51°23' E 004°03'7 6.8
2014-Sep-19 18:33N 51°22' E 004°14'6 5.9
2014-Sep-19 17:28N 51°17' E 004°20'0 0.2
2014-Sep-19 16:33N 51°17' E 004°20'1 0.1
2014-Sep-19 11:21N 51°17' E 004°20'0 0.0
2014-Sep-19 09:27N 51°17' E 004°20'0 0.0
2014-Sep-18 19:22N 51°17' E 004°20'4 4.8
2014-Sep-18 18:31N 51°21' E 004°17'1 0.9
2014-Sep-18 17:33N 51°21' E 004°16'7 6.6
2014-Sep-18 16:33N 51°23' E 004°06'7 7.0
2014-Sep-18 15:33N 51°24' E 003°55'8 8.4
2014-Sep-18 14:33N 51°24' E 003°41'8 8.2
2014-Sep-18 13:33N 51°29' E 003°30'19 3.2
2014-Sep-18 07:28N 51°46' E 003°17'0 0.0
2014-Sep-18 06:25N 51°46' E 003°17'0 0.3
2014-Sep-18 05:32N 51°46' E 003°16'11 9.9
2014-Sep-18 04:27N 51°52' E 003°02'4610.6
2014-Sep-18 00:08N 52°28' E 002°15'610.2
2014-Sep-17 23:33N 52°33' E 002°10'10 9.8
2014-Sep-17 22:33N 52°41' E 002°00'9 9.2
2014-Sep-17 21:32N 52°47' E 001°50'9 9.1
2014-Sep-17 20:33N 52°53' E 001°38'9 9.0
2014-Sep-17 19:33N 52°58' E 001°26'10 9.4
2014-Sep-17 18:32N 53°03' E 001°13'  
Track history (hours):
 
Tides and Currents Weather Stations Pressure Air Temp Water Temp Dewpoint Dewpoint Depression Visibility Wind Speed Wind Dir Waves Ship Positions

Taranto

Last reported at 2014-Sep-24 22:06 UTC. Time now 2014-Oct-01 20:27 UTC.
Position N 46°23' W 002°08'.

Length 88 m; draft 3.2 m.

Type: Cargo ship. MMSI: 304010614.

Date/timePositionNaut miles runAvg speedWind from/ knotsBaromVisibWave heightAir tempDewpointWater temp
2014-Sep-24 22:06N 46°23' W 002°08'610.7
2014-Sep-24 21:32N 46°19' W 002°01'1110.7
2014-Sep-24 20:30N 46°13' W 001°47'3 0.1
2014-Sep-22 21:30N 46°11' W 001°47'  
2014-Sep-20 12:33N 50°36' E 000°21'1110.7
2014-Sep-20 11:33N 50°40' E 000°37'1010.1
2014-Sep-20 10:34N 50°46' E 000°50'38 9.5
2014-Sep-20 06:33N 51°10' E 001°37'1211.5
2014-Sep-20 05:33N 51°18' E 001°50'12 9.0
2014-Sep-20 04:10N 51°23' E 002°08'610.3
2014-Sep-20 03:34N 51°21' E 002°17'1110.5
2014-Sep-20 02:33N 51°23' E 002°34'9 9.1
2014-Sep-20 01:33N 51°22' E 002°48'1514.5
2014-Sep-20 00:32N 51°23' E 003°12'13 6.7
2014-Sep-19 22:33N 51°25' E 003°33'8 8.2
2014-Sep-19 21:33N 51°24' E 003°46'6 5.9
2014-Sep-19 20:31N 51°25' E 003°55'5 5.5
2014-Sep-19 19:33N 51°23' E 004°03'7 6.8
2014-Sep-19 18:33N 51°22' E 004°14'6 5.9
2014-Sep-19 17:28N 51°17' E 004°20'0 0.2
2014-Sep-19 16:33N 51°17' E 004°20'1 0.1
2014-Sep-19 11:21N 51°17' E 004°20'0 0.0
2014-Sep-19 09:27N 51°17' E 004°20'0 0.0
2014-Sep-18 19:22N 51°17' E 004°20'4 4.8
2014-Sep-18 18:31N 51°21' E 004°17'1 0.9
2014-Sep-18 17:33N 51°21' E 004°16'7 6.6
2014-Sep-18 16:33N 51°23' E 004°06'7 7.0
2014-Sep-18 15:33N 51°24' E 003°55'8 8.4
2014-Sep-18 14:33N 51°24' E 003°41'8 8.2
2014-Sep-18 13:33N 51°29' E 003°30'19 3.2
2014-Sep-18 07:28N 51°46' E 003°17'0 0.0
2014-Sep-18 06:25N 51°46' E 003°17'0 0.3
2014-Sep-18 05:32N 51°46' E 003°16'11 9.9
2014-Sep-18 04:27N 51°52' E 003°02'4610.6
2014-Sep-18 00:08N 52°28' E 002°15'610.2
2014-Sep-17 23:33N 52°33' E 002°10'10 9.8
2014-Sep-17 22:33N 52°41' E 002°00'9 9.2
2014-Sep-17 21:32N 52°47' E 001°50'9 9.1
2014-Sep-17 20:33N 52°53' E 001°38'9 9.0
2014-Sep-17 19:33N 52°58' E 001°26'10 9.4
2014-Sep-17 18:32N 53°03' E 001°13'  

Dump ship's entire track history